sensor_id;sensor_type;location;lat;lon;timestamp;temperature;humidity
14471;DHT22;7321;50.802;4.336;2023-11-22T00:01:37;6.90;99.90
14471;DHT22;7321;50.802;4.336;2023-11-22T00:04:03;6.90;99.90
14471;DHT22;7321;50.802;4.336;2023-11-22T00:06:30;6.80;99.90
14471;DHT22;7321;50.802;4.336;2023-11-22T00:08:56;6.80;99.90
14471;DHT22;7321;50.802;4.336;2023-11-22T00:11:22;6.90;99.90
14471;DHT22;7321;50.802;4.336;2023-11-22T00:13:47;6.90;99.90
14471;DHT22;7321;50.802;4.336;2023-11-22T00:16:14;6.80;99.90
14471;DHT22;7321;50.802;4.336;2023-11-22T00:18:41;6.90;99.90
14471;DHT22;7321;50.802;4.336;2023-11-22T00:21:07;6.90;99.90
14471;DHT22;7321;50.802;4.336;2023-11-22T00:23:33;7.10;99.90
14471;DHT22;7321;50.802;4.336;2023-11-22T00:25:59;7.20;99.90
14471;DHT22;7321;50.802;4.336;2023-11-22T00:28:25;7.00;99.90
14471;DHT22;7321;50.802;4.336;2023-11-22T00:30:50;6.80;99.90
14471;DHT22;7321;50.802;4.336;2023-11-22T00:33:16;6.80;99.90
14471;DHT22;7321;50.802;4.336;2023-11-22T00:35:44;6.80;99.90
14471;DHT22;7321;50.802;4.336;2023-11-22T00:38:10;6.90;99.90
14471;DHT22;7321;50.802;4.336;2023-11-22T00:40:36;6.90;99.90
14471;DHT22;7321;50.802;4.336;2023-11-22T00:43:02;6.80;99.90
14471;DHT22;7321;50.802;4.336;2023-11-22T00:45:28;6.90;99.90
14471;DHT22;7321;50.802;4.336;2023-11-22T00:47:55;6.90;99.90
14471;DHT22;7321;50.802;4.336;2023-11-22T00:50:21;6.80;99.90
14471;DHT22;7321;50.802;4.336;2023-11-22T00:52:47;6.70;99.90
14471;DHT22;7321;50.802;4.336;2023-11-22T00:55:13;6.90;99.90
14471;DHT22;7321;50.802;4.336;2023-11-22T00:57:39;7.00;99.90
14471;DHT22;7321;50.802;4.336;2023-11-22T01:00:06;7.00;99.90
14471;DHT22;7321;50.802;4.336;2023-11-22T01:02:35;6.90;99.90
14471;DHT22;7321;50.802;4.336;2023-11-22T01:05:08;7.00;99.90
14471;DHT22;7321;50.802;4.336;2023-11-22T01:07:38;7.00;99.90
14471;DHT22;7321;50.802;4.336;2023-11-22T01:10:04;6.80;99.90
14471;DHT22;7321;50.802;4.336;2023-11-22T01:12:31;6.60;99.90
14471;DHT22;7321;50.802;4.336;2023-11-22T01:14:57;6.50;99.90
14471;DHT22;7321;50.802;4.336;2023-11-22T01:17:23;6.40;99.90
14471;DHT22;7321;50.802;4.336;2023-11-22T01:19:49;6.50;99.90
14471;DHT22;7321;50.802;4.336;2023-11-22T01:22:16;6.60;99.90
14471;DHT22;7321;50.802;4.336;2023-11-22T01:24:43;6.60;99.90
14471;DHT22;7321;50.802;4.336;2023-11-22T01:27:08;6.70;99.90
14471;DHT22;7321;50.802;4.336;2023-11-22T01:29:34;6.60;99.90
14471;DHT22;7321;50.802;4.336;2023-11-22T01:32:00;6.70;99.90
14471;DHT22;7321;50.802;4.336;2023-11-22T01:34:26;6.70;99.90
14471;DHT22;7321;50.802;4.336;2023-11-22T01:36:52;6.70;99.90
14471;DHT22;7321;50.802;4.336;2023-11-22T01:39:18;6.80;99.90
14471;DHT22;7321;50.802;4.336;2023-11-22T01:41:44;6.80;99.90
14471;DHT22;7321;50.802;4.336;2023-11-22T01:44:10;6.80;99.90
14471;DHT22;7321;50.802;4.336;2023-11-22T01:46:37;6.80;99.90
14471;DHT22;7321;50.802;4.336;2023-11-22T01:49:03;6.90;99.90
14471;DHT22;7321;50.802;4.336;2023-11-22T01:51:29;7.00;99.90
14471;DHT22;7321;50.802;4.336;2023-11-22T01:53:56;6.90;99.90
14471;DHT22;7321;50.802;4.336;2023-11-22T01:56:25;6.90;99.90
14471;DHT22;7321;50.802;4.336;2023-11-22T01:58:52;7.00;99.90
14471;DHT22;7321;50.802;4.336;2023-11-22T02:01:20;7.00;99.90
14471;DHT22;7321;50.802;4.336;2023-11-22T02:03:46;6.70;99.90
14471;DHT22;7321;50.802;4.336;2023-11-22T02:06:18;6.70;99.90
14471;DHT22;7321;50.802;4.336;2023-11-22T02:08:44;6.60;99.90
14471;DHT22;7321;50.802;4.336;2023-11-22T02:11:09;6.50;99.90
14471;DHT22;7321;50.802;4.336;2023-11-22T02:13:35;6.50;99.90
14471;DHT22;7321;50.802;4.336;2023-11-22T02:16:02;6.60;99.90
14471;DHT22;7321;50.802;4.336;2023-11-22T02:18:29;6.60;99.90
14471;DHT22;7321;50.802;4.336;2023-11-22T02:20:56;6.70;99.90
14471;DHT22;7321;50.802;4.336;2023-11-22T02:23:22;6.70;99.90
14471;DHT22;7321;50.802;4.336;2023-11-22T02:25:48;6.70;99.90
14471;DHT22;7321;50.802;4.336;2023-11-22T02:28:14;6.40;99.90
14471;DHT22;7321;50.802;4.336;2023-11-22T02:30:40;6.20;99.90
14471;DHT22;7321;50.802;4.336;2023-11-22T02:33:06;6.20;99.90
14471;DHT22;7321;50.802;4.336;2023-11-22T02:35:32;6.30;99.90
14471;DHT22;7321;50.802;4.336;2023-11-22T02:37:58;6.20;99.90
14471;DHT22;7321;50.802;4.336;2023-11-22T02:40:25;6.40;99.90
14471;DHT22;7321;50.802;4.336;2023-11-22T02:42:52;6.20;99.90
14471;DHT22;7321;50.802;4.336;2023-11-22T02:45:28;6.30;99.90
14471;DHT22;7321;50.802;4.336;2023-11-22T02:47:54;6.20;99.90
14471;DHT22;7321;50.802;4.336;2023-11-22T02:50:20;6.30;99.90
14471;DHT22;7321;50.802;4.336;2023-11-22T02:52:46;6.30;99.90
14471;DHT22;7321;50.802;4.336;2023-11-22T02:55:12;6.40;99.90
14471;DHT22;7321;50.802;4.336;2023-11-22T02:57:38;6.40;99.90
14471;DHT22;7321;50.802;4.336;2023-11-22T03:00:08;6.50;99.90
14471;DHT22;7321;50.802;4.336;2023-11-22T03:02:35;6.70;99.90
14471;DHT22;7321;50.802;4.336;2023-11-22T03:05:01;6.60;99.90
14471;DHT22;7321;50.802;4.336;2023-11-22T03:07:27;6.40;99.90
14471;DHT22;7321;50.802;4.336;2023-11-22T03:09:53;6.20;99.90
14471;DHT22;7321;50.802;4.336;2023-11-22T03:12:19;6.20;99.90
14471;DHT22;7321;50.802;4.336;2023-11-22T03:14:46;6.20;99.90
14471;DHT22;7321;50.802;4.336;2023-11-22T03:17:12;6.20;99.90
14471;DHT22;7321;50.802;4.336;2023-11-22T03:19:39;6.20;99.90
14471;DHT22;7321;50.802;4.336;2023-11-22T03:22:06;6.20;99.90
14471;DHT22;7321;50.802;4.336;2023-11-22T03:24:32;6.10;99.90
14471;DHT22;7321;50.802;4.336;2023-11-22T03:27:02;6.00;99.90
14471;DHT22;7321;50.802;4.336;2023-11-22T03:29:29;5.90;99.90
14471;DHT22;7321;50.802;4.336;2023-11-22T03:31:55;5.90;99.90
14471;DHT22;7321;50.802;4.336;2023-11-22T03:34:21;6.00;99.90
14471;DHT22;7321;50.802;4.336;2023-11-22T03:36:47;6.20;99.90
14471;DHT22;7321;50.802;4.336;2023-11-22T03:39:15;6.20;99.90
14471;DHT22;7321;50.802;4.336;2023-11-22T03:41:42;6.30;99.90
14471;DHT22;7321;50.802;4.336;2023-11-22T03:44:08;6.40;99.90
14471;DHT22;7321;50.802;4.336;2023-11-22T03:46:37;6.20;99.90
14471;DHT22;7321;50.802;4.336;2023-11-22T03:49:06;6.20;99.90
14471;DHT22;7321;50.802;4.336;2023-11-22T03:51:33;6.10;99.90
14471;DHT22;7321;50.802;4.336;2023-11-22T03:53:59;6.20;99.90
14471;DHT22;7321;50.802;4.336;2023-11-22T03:56:25;6.30;99.90
14471;DHT22;7321;50.802;4.336;2023-11-22T03:58:51;6.20;99.90
14471;DHT22;7321;50.802;4.336;2023-11-22T04:01:16;6.10;99.90
14471;DHT22;7321;50.802;4.336;2023-11-22T04:03:44;6.20;99.90
14471;DHT22;7321;50.802;4.336;2023-11-22T04:06:10;6.20;99.90
14471;DHT22;7321;50.802;4.336;2023-11-22T04:08:36;6.30;99.90
14471;DHT22;7321;50.802;4.336;2023-11-22T04:11:03;6.60;99.90
14471;DHT22;7321;50.802;4.336;2023-11-22T04:13:31;6.50;99.90
14471;DHT22;7321;50.802;4.336;2023-11-22T04:15:57;6.50;99.90
14471;DHT22;7321;50.802;4.336;2023-11-22T04:18:23;6.60;99.90
14471;DHT22;7321;50.802;4.336;2023-11-22T04:20:50;6.80;99.90
14471;DHT22;7321;50.802;4.336;2023-11-22T04:23:15;7.00;99.90
14471;DHT22;7321;50.802;4.336;2023-11-22T04:25:41;7.00;99.90
14471;DHT22;7321;50.802;4.336;2023-11-22T04:28:07;7.00;99.90
14471;DHT22;7321;50.802;4.336;2023-11-22T04:30:37;6.90;99.90
14471;DHT22;7321;50.802;4.336;2023-11-22T04:33:03;6.80;99.90
14471;DHT22;7321;50.802;4.336;2023-11-22T04:35:29;6.90;99.90
14471;DHT22;7321;50.802;4.336;2023-11-22T04:37:55;6.50;99.90
14471;DHT22;7321;50.802;4.336;2023-11-22T04:40:21;6.60;99.90
14471;DHT22;7321;50.802;4.336;2023-11-22T04:42:47;6.60;99.90
14471;DHT22;7321;50.802;4.336;2023-11-22T04:45:14;6.70;99.90
14471;DHT22;7321;50.802;4.336;2023-11-22T04:47:39;6.60;99.90
14471;DHT22;7321;50.802;4.336;2023-11-22T04:50:06;6.60;99.90
14471;DHT22;7321;50.802;4.336;2023-11-22T04:52:32;6.40;99.90
14471;DHT22;7321;50.802;4.336;2023-11-22T04:54:58;6.30;99.90
14471;DHT22;7321;50.802;4.336;2023-11-22T04:57:24;6.20;99.90
14471;DHT22;7321;50.802;4.336;2023-11-22T04:59:49;6.30;99.90
14471;DHT22;7321;50.802;4.336;2023-11-22T05:02:15;6.50;99.90
14471;DHT22;7321;50.802;4.336;2023-11-22T05:04:41;6.70;99.90
14471;DHT22;7321;50.802;4.336;2023-11-22T05:07:08;6.70;99.90
14471;DHT22;7321;50.802;4.336;2023-11-22T05:09:34;6.70;99.90
14471;DHT22;7321;50.802;4.336;2023-11-22T05:12:00;6.80;99.90
14471;DHT22;7321;50.802;4.336;2023-11-22T05:14:26;6.90;99.90
14471;DHT22;7321;50.802;4.336;2023-11-22T05:16:52;6.70;99.90
14471;DHT22;7321;50.802;4.336;2023-11-22T05:19:19;6.80;99.90
14471;DHT22;7321;50.802;4.336;2023-11-22T05:21:45;6.80;99.90
14471;DHT22;7321;50.802;4.336;2023-11-22T05:24:10;6.70;99.90
14471;DHT22;7321;50.802;4.336;2023-11-22T05:26:36;6.80;99.90
14471;DHT22;7321;50.802;4.336;2023-11-22T05:29:03;6.70;99.90
14471;DHT22;7321;50.802;4.336;2023-11-22T05:31:30;6.40;99.90
14471;DHT22;7321;50.802;4.336;2023-11-22T05:33:56;6.60;99.90
14471;DHT22;7321;50.802;4.336;2023-11-22T05:36:22;6.70;99.90
14471;DHT22;7321;50.802;4.336;2023-11-22T05:38:47;6.60;99.90
14471;DHT22;7321;50.802;4.336;2023-11-22T05:41:13;6.50;99.90
14471;DHT22;7321;50.802;4.336;2023-11-22T05:43:39;6.50;99.90
14471;DHT22;7321;50.802;4.336;2023-11-22T05:46:08;6.50;99.90
14471;DHT22;7321;50.802;4.336;2023-11-22T05:48:34;6.20;99.90
14471;DHT22;7321;50.802;4.336;2023-11-22T05:51:00;6.00;99.90
14471;DHT22;7321;50.802;4.336;2023-11-22T05:53:26;6.10;99.90
14471;DHT22;7321;50.802;4.336;2023-11-22T05:55:52;6.30;99.90
14471;DHT22;7321;50.802;4.336;2023-11-22T05:58:18;6.30;99.90
14471;DHT22;7321;50.802;4.336;2023-11-22T06:00:44;6.20;99.90
14471;DHT22;7321;50.802;4.336;2023-11-22T06:03:14;6.30;99.90
14471;DHT22;7321;50.802;4.336;2023-11-22T06:05:40;6.50;99.90
14471;DHT22;7321;50.802;4.336;2023-11-22T06:08:06;6.60;99.90
14471;DHT22;7321;50.802;4.336;2023-11-22T06:10:32;6.60;99.90
14471;DHT22;7321;50.802;4.336;2023-11-22T06:13:03;6.60;99.90
14471;DHT22;7321;50.802;4.336;2023-11-22T06:15:29;6.60;99.90
14471;DHT22;7321;50.802;4.336;2023-11-22T06:17:57;6.40;99.90
14471;DHT22;7321;50.802;4.336;2023-11-22T06:20:23;6.40;99.90
14471;DHT22;7321;50.802;4.336;2023-11-22T06:22:52;6.60;99.90
14471;DHT22;7321;50.802;4.336;2023-11-22T06:25:17;6.70;99.90
14471;DHT22;7321;50.802;4.336;2023-11-22T06:27:43;6.90;99.90
14471;DHT22;7321;50.802;4.336;2023-11-22T06:30:09;7.00;99.90
14471;DHT22;7321;50.802;4.336;2023-11-22T06:32:35;7.10;99.90
14471;DHT22;7321;50.802;4.336;2023-11-22T06:35:01;7.10;99.90
14471;DHT22;7321;50.802;4.336;2023-11-22T06:37:28;7.20;99.90
14471;DHT22;7321;50.802;4.336;2023-11-22T06:39:54;7.30;99.90
14471;DHT22;7321;50.802;4.336;2023-11-22T06:42:20;7.40;99.90
14471;DHT22;7321;50.802;4.336;2023-11-22T06:44:46;7.50;99.90
14471;DHT22;7321;50.802;4.336;2023-11-22T06:47:13;7.50;99.90
14471;DHT22;7321;50.802;4.336;2023-11-22T06:49:39;7.50;99.90
14471;DHT22;7321;50.802;4.336;2023-11-22T06:52:05;7.50;99.90
14471;DHT22;7321;50.802;4.336;2023-11-22T06:54:31;7.60;99.90
14471;DHT22;7321;50.802;4.336;2023-11-22T06:56:57;7.60;99.90
14471;DHT22;7321;50.802;4.336;2023-11-22T06:59:23;7.50;99.90
14471;DHT22;7321;50.802;4.336;2023-11-22T07:01:49;7.50;99.90
14471;DHT22;7321;50.802;4.336;2023-11-22T07:04:14;7.40;99.90
14471;DHT22;7321;50.802;4.336;2023-11-22T07:06:40;7.40;99.90
14471;DHT22;7321;50.802;4.336;2023-11-22T07:09:08;7.40;99.90
14471;DHT22;7321;50.802;4.336;2023-11-22T07:11:37;7.50;99.90
14471;DHT22;7321;50.802;4.336;2023-11-22T07:14:03;7.50;99.90
14471;DHT22;7321;50.802;4.336;2023-11-22T07:16:32;7.60;99.90
14471;DHT22;7321;50.802;4.336;2023-11-22T07:18:59;7.50;99.90
14471;DHT22;7321;50.802;4.336;2023-11-22T07:21:29;7.60;99.90
14471;DHT22;7321;50.802;4.336;2023-11-22T07:23:55;7.40;99.90
14471;DHT22;7321;50.802;4.336;2023-11-22T07:26:21;7.40;99.90
14471;DHT22;7321;50.802;4.336;2023-11-22T07:28:47;7.40;99.90
14471;DHT22;7321;50.802;4.336;2023-11-22T07:31:13;7.50;99.90
14471;DHT22;7321;50.802;4.336;2023-11-22T07:33:39;7.60;99.90
14471;DHT22;7321;50.802;4.336;2023-11-22T07:36:06;7.70;99.90
14471;DHT22;7321;50.802;4.336;2023-11-22T07:38:33;7.80;99.90
14471;DHT22;7321;50.802;4.336;2023-11-22T07:40:59;7.70;99.90
14471;DHT22;7321;50.802;4.336;2023-11-22T07:43:25;7.80;99.90
14471;DHT22;7321;50.802;4.336;2023-11-22T07:45:51;7.80;99.90
14471;DHT22;7321;50.802;4.336;2023-11-22T07:48:17;7.70;99.90
14471;DHT22;7321;50.802;4.336;2023-11-22T07:50:43;7.70;99.90
14471;DHT22;7321;50.802;4.336;2023-11-22T07:53:10;7.80;99.90
14471;DHT22;7321;50.802;4.336;2023-11-22T07:55:38;7.80;99.90
14471;DHT22;7321;50.802;4.336;2023-11-22T07:58:04;7.90;99.90
14471;DHT22;7321;50.802;4.336;2023-11-22T08:00:33;7.80;99.90
14471;DHT22;7321;50.802;4.336;2023-11-22T08:03:02;7.90;99.90
14471;DHT22;7321;50.802;4.336;2023-11-22T08:05:31;7.90;99.90
14471;DHT22;7321;50.802;4.336;2023-11-22T08:08:05;7.90;99.90
14471;DHT22;7321;50.802;4.336;2023-11-22T08:10:37;7.90;99.90
14471;DHT22;7321;50.802;4.336;2023-11-22T08:13:03;7.90;99.90
14471;DHT22;7321;50.802;4.336;2023-11-22T08:15:29;7.90;99.90
14471;DHT22;7321;50.802;4.336;2023-11-22T08:17:57;8.00;99.90
14471;DHT22;7321;50.802;4.336;2023-11-22T08:20:24;8.10;99.90
14471;DHT22;7321;50.802;4.336;2023-11-22T08:22:51;8.20;99.90
14471;DHT22;7321;50.802;4.336;2023-11-22T08:25:17;8.30;99.90
14471;DHT22;7321;50.802;4.336;2023-11-22T08:27:44;8.30;99.90
14471;DHT22;7321;50.802;4.336;2023-11-22T08:30:10;8.30;99.90
14471;DHT22;7321;50.802;4.336;2023-11-22T08:32:42;8.30;99.90
14471;DHT22;7321;50.802;4.336;2023-11-22T08:35:09;8.20;99.90
14471;DHT22;7321;50.802;4.336;2023-11-22T08:37:35;8.30;99.90
14471;DHT22;7321;50.802;4.336;2023-11-22T08:40:06;8.30;99.90
14471;DHT22;7321;50.802;4.336;2023-11-22T08:42:33;8.40;99.90
14471;DHT22;7321;50.802;4.336;2023-11-22T08:44:59;8.40;99.90
14471;DHT22;7321;50.802;4.336;2023-11-22T08:47:25;8.30;99.90
14471;DHT22;7321;50.802;4.336;2023-11-22T08:49:51;8.50;99.90
14471;DHT22;7321;50.802;4.336;2023-11-22T08:52:19;8.50;99.90
14471;DHT22;7321;50.802;4.336;2023-11-22T08:54:45;8.40;99.90
14471;DHT22;7321;50.802;4.336;2023-11-22T08:57:11;8.40;99.90
14471;DHT22;7321;50.802;4.336;2023-11-22T08:59:38;8.40;99.90
14471;DHT22;7321;50.802;4.336;2023-11-22T09:02:04;8.30;99.90
14471;DHT22;7321;50.802;4.336;2023-11-22T09:04:30;8.30;99.90
14471;DHT22;7321;50.802;4.336;2023-11-22T09:06:57;8.30;99.90
14471;DHT22;7321;50.802;4.336;2023-11-22T09:09:23;8.40;99.90
14471;DHT22;7321;50.802;4.336;2023-11-22T09:11:59;8.50;99.90
14471;DHT22;7321;50.802;4.336;2023-11-22T09:14:25;8.60;99.90
14471;DHT22;7321;50.802;4.336;2023-11-22T09:16:51;8.60;99.90
14471;DHT22;7321;50.802;4.336;2023-11-22T09:19:24;8.70;99.90
14471;DHT22;7321;50.802;4.336;2023-11-22T09:21:51;8.80;99.90
14471;DHT22;7321;50.802;4.336;2023-11-22T09:24:17;8.90;99.90
14471;DHT22;7321;50.802;4.336;2023-11-22T09:26:43;8.90;99.90
14471;DHT22;7321;50.802;4.336;2023-11-22T09:29:10;9.00;99.90
14471;DHT22;7321;50.802;4.336;2023-11-22T09:31:39;9.00;99.90
14471;DHT22;7321;50.802;4.336;2023-11-22T09:34:05;8.90;99.90
14471;DHT22;7321;50.802;4.336;2023-11-22T09:36:31;8.80;99.90
14471;DHT22;7321;50.802;4.336;2023-11-22T09:38:59;8.90;99.90
14471;DHT22;7321;50.802;4.336;2023-11-22T09:41:25;9.10;99.90
14471;DHT22;7321;50.802;4.336;2023-11-22T09:43:53;9.10;99.90
14471;DHT22;7321;50.802;4.336;2023-11-22T09:46:22;9.20;99.90
14471;DHT22;7321;50.802;4.336;2023-11-22T09:48:49;9.30;99.90
14471;DHT22;7321;50.802;4.336;2023-11-22T09:51:24;9.20;99.90
14471;DHT22;7321;50.802;4.336;2023-11-22T09:53:56;9.20;99.90
14471;DHT22;7321;50.802;4.336;2023-11-22T09:56:23;9.30;99.90
14471;DHT22;7321;50.802;4.336;2023-11-22T09:58:53;9.20;99.90
14471;DHT22;7321;50.802;4.336;2023-11-22T10:01:22;9.00;99.90
14471;DHT22;7321;50.802;4.336;2023-11-22T10:03:48;9.00;99.90
14471;DHT22;7321;50.802;4.336;2023-11-22T10:06:14;9.00;99.90
14471;DHT22;7321;50.802;4.336;2023-11-22T10:08:41;9.10;99.90
14471;DHT22;7321;50.802;4.336;2023-11-22T10:11:07;9.10;99.90
14471;DHT22;7321;50.802;4.336;2023-11-22T10:13:33;9.20;99.90
14471;DHT22;7321;50.802;4.336;2023-11-22T10:16:28;9.30;99.90
14471;DHT22;7321;50.802;4.336;2023-11-22T10:18:54;9.20;99.90
14471;DHT22;7321;50.802;4.336;2023-11-22T10:21:28;9.20;99.90
14471;DHT22;7321;50.802;4.336;2023-11-22T10:24:05;9.30;99.90
14471;DHT22;7321;50.802;4.336;2023-11-22T10:26:36;9.10;99.90
14471;DHT22;7321;50.802;4.336;2023-11-22T10:29:01;9.20;99.90
14471;DHT22;7321;50.802;4.336;2023-11-22T10:31:28;9.30;99.90
14471;DHT22;7321;50.802;4.336;2023-11-22T10:33:54;9.40;99.90
14471;DHT22;7321;50.802;4.336;2023-11-22T10:36:23;9.30;99.90
14471;DHT22;7321;50.802;4.336;2023-11-22T10:38:49;9.30;99.90
14471;DHT22;7321;50.802;4.336;2023-11-22T10:41:20;9.20;99.90
14471;DHT22;7321;50.802;4.336;2023-11-22T10:43:47;9.40;99.90
14471;DHT22;7321;50.802;4.336;2023-11-22T10:46:13;9.40;99.90
14471;DHT22;7321;50.802;4.336;2023-11-22T10:48:40;9.30;99.90
14471;DHT22;7321;50.802;4.336;2023-11-22T10:51:06;9.40;99.90
14471;DHT22;7321;50.802;4.336;2023-11-22T10:53:34;9.50;99.90
14471;DHT22;7321;50.802;4.336;2023-11-22T10:56:15;9.40;99.90
14471;DHT22;7321;50.802;4.336;2023-11-22T10:58:51;9.30;99.90
14471;DHT22;7321;50.802;4.336;2023-11-22T11:01:20;9.40;99.90
14471;DHT22;7321;50.802;4.336;2023-11-22T11:06:26;9.30;99.90
14471;DHT22;7321;50.802;4.336;2023-11-22T11:09:00;9.20;99.90
14471;DHT22;7321;50.802;4.336;2023-11-22T11:11:27;9.30;99.90
14471;DHT22;7321;50.802;4.336;2023-11-22T11:13:55;9.30;99.90
14471;DHT22;7321;50.802;4.336;2023-11-22T11:16:22;9.40;99.90
14471;DHT22;7321;50.802;4.336;2023-11-22T11:18:49;9.30;99.90
14471;DHT22;7321;50.802;4.336;2023-11-22T11:21:15;9.20;99.90
14471;DHT22;7321;50.802;4.336;2023-11-22T11:23:41;9.20;99.90
14471;DHT22;7321;50.802;4.336;2023-11-22T11:26:15;9.40;99.90
14471;DHT22;7321;50.802;4.336;2023-11-22T11:28:47;9.30;99.90
14471;DHT22;7321;50.802;4.336;2023-11-22T11:31:14;9.30;99.90
14471;DHT22;7321;50.802;4.336;2023-11-22T11:36:29;9.30;99.90
14471;DHT22;7321;50.802;4.336;2023-11-22T11:39:00;9.30;99.90
14471;DHT22;7321;50.802;4.336;2023-11-22T11:41:33;9.50;99.90
14471;DHT22;7321;50.802;4.336;2023-11-22T11:44:01;9.40;99.90
14471;DHT22;7321;50.802;4.336;2023-11-22T11:46:29;9.70;99.90
14471;DHT22;7321;50.802;4.336;2023-11-22T11:48:56;9.60;99.90
14471;DHT22;7321;50.802;4.336;2023-11-22T11:51:27;9.70;99.90
14471;DHT22;7321;50.802;4.336;2023-11-22T11:53:56;9.80;99.90
14471;DHT22;7321;50.802;4.336;2023-11-22T11:56:23;10.00;99.90
14471;DHT22;7321;50.802;4.336;2023-11-22T11:58:53;10.10;99.90
14471;DHT22;7321;50.802;4.336;2023-11-22T12:01:19;10.10;99.90
14471;DHT22;7321;50.802;4.336;2023-11-22T12:03:49;10.20;99.90
14471;DHT22;7321;50.802;4.336;2023-11-22T12:06:18;10.10;99.90
14471;DHT22;7321;50.802;4.336;2023-11-22T12:08:45;10.20;99.90
14471;DHT22;7321;50.802;4.336;2023-11-22T12:11:13;10.10;99.90
14471;DHT22;7321;50.802;4.336;2023-11-22T12:13:39;10.30;99.90
14471;DHT22;7321;50.802;4.336;2023-11-22T12:16:09;10.40;99.90
14471;DHT22;7321;50.802;4.336;2023-11-22T12:18:55;10.60;99.90
14471;DHT22;7321;50.802;4.336;2023-11-22T12:21:21;10.60;99.90
14471;DHT22;7321;50.802;4.336;2023-11-22T12:23:47;10.50;99.90
14471;DHT22;7321;50.802;4.336;2023-11-22T12:26:15;10.50;99.90
14471;DHT22;7321;50.802;4.336;2023-11-22T12:28:46;10.60;99.90
14471;DHT22;7321;50.802;4.336;2023-11-22T12:31:13;10.50;99.90
14471;DHT22;7321;50.802;4.336;2023-11-22T12:33:43;10.40;99.90
14471;DHT22;7321;50.802;4.336;2023-11-22T12:36:10;10.30;99.90
14471;DHT22;7321;50.802;4.336;2023-11-22T12:38:37;10.40;99.90
14471;DHT22;7321;50.802;4.336;2023-11-22T12:41:03;10.40;99.90
14471;DHT22;7321;50.802;4.336;2023-11-22T12:43:32;10.40;99.90
14471;DHT22;7321;50.802;4.336;2023-11-22T12:46:02;10.50;99.90
14471;DHT22;7321;50.802;4.336;2023-11-22T12:48:28;10.30;99.90
14471;DHT22;7321;50.802;4.336;2023-11-22T12:50:59;10.30;99.90
14471;DHT22;7321;50.802;4.336;2023-11-22T12:53:25;10.30;99.90
14471;DHT22;7321;50.802;4.336;2023-11-22T12:55:54;10.30;99.90
14471;DHT22;7321;50.802;4.336;2023-11-22T12:58:22;10.20;99.90
14471;DHT22;7321;50.802;4.336;2023-11-22T13:00:50;10.20;99.90
14471;DHT22;7321;50.802;4.336;2023-11-22T13:03:16;9.60;99.90
14471;DHT22;7321;50.802;4.336;2023-11-22T13:05:43;9.60;99.90
14471;DHT22;7321;50.802;4.336;2023-11-22T13:08:13;9.40;99.90
14471;DHT22;7321;50.802;4.336;2023-11-22T13:10:46;9.30;99.90
14471;DHT22;7321;50.802;4.336;2023-11-22T13:13:14;9.20;99.90
14471;DHT22;7321;50.802;4.336;2023-11-22T13:15:40;9.20;99.90
14471;DHT22;7321;50.802;4.336;2023-11-22T13:18:09;9.20;99.90
14471;DHT22;7321;50.802;4.336;2023-11-22T13:20:35;9.00;99.90
14471;DHT22;7321;50.802;4.336;2023-11-22T13:23:01;9.00;99.90
14471;DHT22;7321;50.802;4.336;2023-11-22T13:25:28;9.00;99.90
14471;DHT22;7321;50.802;4.336;2023-11-22T13:27:54;9.00;99.90
14471;DHT22;7321;50.802;4.336;2023-11-22T13:30:22;9.10;99.90
14471;DHT22;7321;50.802;4.336;2023-11-22T13:32:52;9.20;99.90
14471;DHT22;7321;50.802;4.336;2023-11-22T13:35:19;9.20;99.90
14471;DHT22;7321;50.802;4.336;2023-11-22T13:37:46;8.90;99.90
14471;DHT22;7321;50.802;4.336;2023-11-22T13:40:20;9.00;99.90
14471;DHT22;7321;50.802;4.336;2023-11-22T13:42:50;9.40;99.90
14471;DHT22;7321;50.802;4.336;2023-11-22T13:45:18;9.60;99.90
14471;DHT22;7321;50.802;4.336;2023-11-22T13:47:46;9.40;99.90
14471;DHT22;7321;50.802;4.336;2023-11-22T13:50:16;9.20;99.90
14471;DHT22;7321;50.802;4.336;2023-11-22T13:52:50;9.10;99.90
14471;DHT22;7321;50.802;4.336;2023-11-22T13:55:17;9.00;99.90
14471;DHT22;7321;50.802;4.336;2023-11-22T13:57:55;9.00;99.90
14471;DHT22;7321;50.802;4.336;2023-11-22T14:00:23;8.80;99.90
14471;DHT22;7321;50.802;4.336;2023-11-22T14:02:54;8.60;99.90
14471;DHT22;7321;50.802;4.336;2023-11-22T14:05:26;8.70;99.90
14471;DHT22;7321;50.802;4.336;2023-11-22T14:07:55;8.80;99.90
14471;DHT22;7321;50.802;4.336;2023-11-22T14:10:21;9.00;99.90
14471;DHT22;7321;50.802;4.336;2023-11-22T14:12:50;9.20;99.90
14471;DHT22;7321;50.802;4.336;2023-11-22T14:15:17;9.40;99.90
14471;DHT22;7321;50.802;4.336;2023-11-22T14:17:45;9.40;99.90
14471;DHT22;7321;50.802;4.336;2023-11-22T14:20:17;9.50;99.90
14471;DHT22;7321;50.802;4.336;2023-11-22T14:22:43;9.50;99.90
14471;DHT22;7321;50.802;4.336;2023-11-22T14:25:09;9.70;99.90
14471;DHT22;7321;50.802;4.336;2023-11-22T14:27:42;9.80;99.90
14471;DHT22;7321;50.802;4.336;2023-11-22T14:30:13;9.80;99.90
14471;DHT22;7321;50.802;4.336;2023-11-22T14:32:41;9.70;99.90
14471;DHT22;7321;50.802;4.336;2023-11-22T14:35:08;9.70;99.90
14471;DHT22;7321;50.802;4.336;2023-11-22T14:37:34;9.60;99.90
14471;DHT22;7321;50.802;4.336;2023-11-22T14:40:01;9.70;99.90
14471;DHT22;7321;50.802;4.336;2023-11-22T14:42:30;9.50;99.90
14471;DHT22;7321;50.802;4.336;2023-11-22T14:44:57;9.30;99.90
14471;DHT22;7321;50.802;4.336;2023-11-22T14:47:23;9.40;99.90
14471;DHT22;7321;50.802;4.336;2023-11-22T14:49:50;9.50;99.90
14471;DHT22;7321;50.802;4.336;2023-11-22T14:52:17;9.70;99.90
14471;DHT22;7321;50.802;4.336;2023-11-22T14:54:44;9.60;99.90
14471;DHT22;7321;50.802;4.336;2023-11-22T14:57:11;9.80;99.90
14471;DHT22;7321;50.802;4.336;2023-11-22T14:59:39;9.80;99.90
14471;DHT22;7321;50.802;4.336;2023-11-22T15:02:05;9.80;99.90
14471;DHT22;7321;50.802;4.336;2023-11-22T15:04:34;9.90;99.90
14471;DHT22;7321;50.802;4.336;2023-11-22T15:07:02;9.90;99.90
14471;DHT22;7321;50.802;4.336;2023-11-22T15:09:29;10.00;99.90
14471;DHT22;7321;50.802;4.336;2023-11-22T15:12:01;10.10;99.90
14471;DHT22;7321;50.802;4.336;2023-11-22T15:14:30;10.10;99.90
14471;DHT22;7321;50.802;4.336;2023-11-22T15:16:55;9.90;99.90
14471;DHT22;7321;50.802;4.336;2023-11-22T15:19:21;10.00;99.90
14471;DHT22;7321;50.802;4.336;2023-11-22T15:21:50;10.00;99.90
14471;DHT22;7321;50.802;4.336;2023-11-22T15:24:20;9.80;99.90
14471;DHT22;7321;50.802;4.336;2023-11-22T15:26:46;9.70;99.90
14471;DHT22;7321;50.802;4.336;2023-11-22T15:29:12;9.70;99.90
14471;DHT22;7321;50.802;4.336;2023-11-22T15:31:41;9.70;99.90
14471;DHT22;7321;50.802;4.336;2023-11-22T15:34:07;9.70;99.90
14471;DHT22;7321;50.802;4.336;2023-11-22T15:36:33;9.80;99.90
14471;DHT22;7321;50.802;4.336;2023-11-22T15:39:00;9.80;99.90
14471;DHT22;7321;50.802;4.336;2023-11-22T15:41:26;9.90;99.90
14471;DHT22;7321;50.802;4.336;2023-11-22T15:43:53;9.90;99.90
14471;DHT22;7321;50.802;4.336;2023-11-22T15:46:18;9.90;99.90
14471;DHT22;7321;50.802;4.336;2023-11-22T15:48:52;10.00;99.90
14471;DHT22;7321;50.802;4.336;2023-11-22T15:51:18;10.10;99.90
14471;DHT22;7321;50.802;4.336;2023-11-22T15:53:44;10.10;99.90
14471;DHT22;7321;50.802;4.336;2023-11-22T15:56:10;10.00;99.90
14471;DHT22;7321;50.802;4.336;2023-11-22T15:58:43;9.80;99.90
14471;DHT22;7321;50.802;4.336;2023-11-22T16:01:09;9.90;99.90
14471;DHT22;7321;50.802;4.336;2023-11-22T16:03:35;9.80;99.90
14471;DHT22;7321;50.802;4.336;2023-11-22T16:06:01;9.70;99.90